Terminal Aerodrome Forecast
Issued by NWS Dallas/Fort Worth, TX

Home | Current Version | Previous Version | Text Only | Print | Product List | Glossary On
Versions: 1 2 3 4 5 6 7 8 9 10 11 12 13 14 15 16 17 18 19 20 21 22 23 24 25 26 27 28 29 30 31
000
FTUS44 KFWD 221100 RRA
TAFDFW
TAF
KDFW 221141Z 2212/2318 20015KT P6SM SCT017
     FM221500 24013KT P6SM SCT250
     FM221800 28017KT P6SM BKN250
     FM222000 33017KT P6SM BKN250
     FM230000 34010KT P6SM BKN250
     FM231200 36010KT P6SM BKN050 OVC250=

USA.gov is the U.S. government's official web portal to all federal, state and local government web resources and services.